createdAt,value
2018-04-15T00:00:16.973Z,10.15
2018-04-15T00:01:23.313Z,10.03
2018-04-15T00:02:29.790Z,9.99
2018-04-15T00:03:36.101Z,10.04
2018-04-15T00:04:42.320Z,10.19
2018-04-15T00:05:48.622Z,10.34
2018-04-15T00:06:54.860Z,10.45
2018-04-15T00:08:02.466Z,10.23
2018-04-15T00:09:08.936Z,10.11
2018-04-15T00:10:16.699Z,9.96
2018-04-15T00:11:22.971Z,9.95
2018-04-15T00:12:29.263Z,10.11
2018-04-15T00:13:35.572Z,10.27
2018-04-15T00:14:41.787Z,10.30
2018-04-15T00:15:48.103Z,10.29
2018-04-15T00:16:54.438Z,10.29
2018-04-15T00:18:00.724Z,10.02
2018-04-15T00:19:07.067Z,9.90
2018-04-15T00:20:13.377Z,9.78
2018-04-15T00:21:19.347Z,9.70
2018-04-15T00:22:25.605Z,9.67
2018-04-15T00:23:33.431Z,9.87
2018-04-15T00:24:41.286Z,10.02
2018-04-15T00:25:48.110Z,10.01
2018-04-15T00:26:59.291Z,10.03
2018-04-15T00:28:05.542Z,9.94
2018-04-15T00:29:11.939Z,9.80
2018-04-15T00:30:18.366Z,9.71
2018-04-15T00:31:28.467Z,9.62
2018-04-15T00:32:34.769Z,9.56
2018-04-15T00:33:41.053Z,9.63
2018-04-15T00:34:47.290Z,9.58
2018-04-15T00:35:53.571Z,9.55
2018-04-15T00:36:59.907Z,9.70
2018-04-15T00:38:06.224Z,9.87
2018-04-15T00:39:14.558Z,10.05
2018-04-15T00:40:20.748Z,10.17
2018-04-15T00:41:26.403Z,10.03
2018-04-15T00:42:32.695Z,9.92
2018-04-15T00:43:39.584Z,9.87
2018-04-15T00:44:45.955Z,9.91
2018-04-15T00:45:52.233Z,10.01
2018-04-15T00:46:58.432Z,9.94
2018-04-15T00:48:04.659Z,9.84
2018-04-15T00:49:10.934Z,9.78
2018-04-15T00:50:17.175Z,9.75
2018-04-15T00:51:24.536Z,9.88
2018-04-15T00:52:33.107Z,9.99
2018-04-15T00:55:22.515Z,10.24
2018-04-15T00:56:28.775Z,10.36
2018-04-15T00:57:37.954Z,10.41
2018-04-15T00:58:44.337Z,10.43
2018-04-15T00:59:55.898Z,10.45
2018-04-15T01:01:03.723Z,10.41
2018-04-15T01:02:10.006Z,10.28
2018-04-15T01:03:16.064Z,10.30
2018-04-15T01:04:22.347Z,10.06
2018-04-15T01:05:28.267Z,9.78
2018-04-15T01:06:34.535Z,9.69
2018-04-15T01:07:41.522Z,9.62
2018-04-15T01:08:47.799Z,9.65
2018-04-15T01:09:53.808Z,9.54
2018-04-15T01:11:00.009Z,9.51
2018-04-15T01:12:06.354Z,9.42
2018-04-15T01:13:12.596Z,9.40
2018-04-15T01:14:18.843Z,9.42
2018-04-15T01:15:25.274Z,9.43
2018-04-15T01:16:33.183Z,9.45
2018-04-15T01:17:39.430Z,9.44
2018-04-15T01:18:45.734Z,9.54
2018-04-15T01:19:52.015Z,9.71
2018-04-15T01:20:58.243Z,9.85
2018-04-15T01:22:04.095Z,9.94
2018-04-15T01:23:10.949Z,9.85
2018-04-15T01:24:17.207Z,9.84
2018-04-15T01:25:23.527Z,9.73
2018-04-15T01:26:29.472Z,9.73
2018-04-15T01:27:35.733Z,9.86
2018-04-15T01:28:42.034Z,9.98
2018-04-15T01:29:48.878Z,10.08
2018-04-15T01:30:55.142Z,10.10
2018-04-15T01:32:01.910Z,9.83
2018-04-15T01:33:08.192Z,9.67
2018-04-15T01:34:14.533Z,9.62
2018-04-15T01:35:20.802Z,9.56
2018-04-15T01:36:27.098Z,9.49
2018-04-15T01:37:35.251Z,9.48
2018-04-15T01:38:41.446Z,9.39
2018-04-15T01:39:47.756Z,9.32
2018-04-15T01:40:53.990Z,9.38
2018-04-15T01:42:00.204Z,9.37
2018-04-15T01:43:06.423Z,9.42
2018-04-15T01:44:12.763Z,9.37
2018-04-15T01:45:19.055Z,9.37
2018-04-15T01:46:26.182Z,9.36
2018-04-15T01:47:32.487Z,9.41
2018-04-15T01:48:38.690Z,9.56
2018-04-15T01:49:44.921Z,9.74
2018-04-15T01:50:51.217Z,9.92
2018-04-15T01:51:59.084Z,9.97
2018-04-15T01:53:05.262Z,9.99
2018-04-15T01:54:11.355Z,9.96
2018-04-15T01:55:21.360Z,10.01
2018-04-15T01:56:27.581Z,10.14
2018-04-15T01:57:33.916Z,10.25
2018-04-15T01:58:40.215Z,10.32
2018-04-15T01:59:46.578Z,10.36
2018-04-15T02:00:52.774Z,10.15
2018-04-15T02:01:59.049Z,10.01
2018-04-15T02:03:05.381Z,9.82
2018-04-15T02:04:11.685Z,9.86
2018-04-15T02:05:17.990Z,9.75
2018-04-15T02:06:23.998Z,9.64
2018-04-15T02:07:31.300Z,9.56
2018-04-15T02:08:38.720Z,9.51
2018-04-15T02:09:44.971Z,9.57
2018-04-15T02:10:51.208Z,9.60
2018-04-15T02:11:57.540Z,9.62
2018-04-15T02:13:03.576Z,9.69
2018-04-15T02:14:09.799Z,9.85
2018-04-15T02:15:16.072Z,10.03
2018-04-15T02:16:24.990Z,10.13
2018-04-15T02:17:37.793Z,10.19
2018-04-15T02:18:44.073Z,10.19
2018-04-15T02:19:50.411Z,10.20
2018-04-15T02:20:57.435Z,10.11
2018-04-15T02:22:04.081Z,10.07
2018-04-15T02:23:11.239Z,10.07
2018-04-15T02:24:17.449Z,9.92
2018-04-15T02:25:23.678Z,9.82
2018-04-15T02:26:29.979Z,9.74
2018-04-15T02:27:35.882Z,9.73
2018-04-15T02:28:41.911Z,9.93
2018-04-15T02:29:48.229Z,10.09
2018-04-15T02:30:54.766Z,10.19
2018-04-15T02:32:01.039Z,10.24
2018-04-15T02:33:08.018Z,10.25
2018-04-15T02:34:14.451Z,10.24
2018-04-15T02:35:20.800Z,10.21
2018-04-15T02:36:27.133Z,10.08
2018-04-15T02:37:42.683Z,9.94
2018-04-15T02:38:51.247Z,9.86
2018-04-15T02:39:58.391Z,9.83
2018-04-15T02:41:04.767Z,9.82
2018-04-15T02:42:11.718Z,9.90
2018-04-15T02:43:18.074Z,10.02
2018-04-15T02:44:24.285Z,10.11
2018-04-15T02:45:30.583Z,10.15
2018-04-15T02:46:36.815Z,10.15
2018-04-15T02:47:43.126Z,10.13
2018-04-15T02:48:49.490Z,10.09
2018-04-15T02:49:55.738Z,10.06
2018-04-15T02:51:02.087Z,9.99
2018-04-15T02:52:08.358Z,9.86
2018-04-15T02:53:14.343Z,9.76
2018-04-15T02:54:20.843Z,9.78
2018-04-15T02:55:27.150Z,9.81
2018-04-15T02:56:33.427Z,9.81
2018-04-15T02:57:40.186Z,9.73
2018-04-15T02:58:48.443Z,9.69
2018-04-15T02:59:54.627Z,9.60
2018-04-15T03:01:00.928Z,9.64
2018-04-15T03:02:08.001Z,9.79
2018-04-15T03:03:14.234Z,9.91
2018-04-15T03:04:20.464Z,9.94
2018-04-15T03:05:26.750Z,9.89
2018-04-15T03:06:33.697Z,9.72
2018-04-15T03:07:39.996Z,9.68
2018-04-15T03:08:46.318Z,9.66
2018-04-15T03:09:53.872Z,9.63
2018-04-15T03:11:00.754Z,9.58
2018-04-15T03:12:07.129Z,9.60
2018-04-15T03:13:13.386Z,9.63
2018-04-15T03:14:19.596Z,9.67
2018-04-15T03:15:25.935Z,9.69
2018-04-15T03:16:31.938Z,9.70
2018-04-15T03:17:43.341Z,9.49
2018-04-15T03:18:49.855Z,9.44
2018-04-15T03:19:56.179Z,9.31
2018-04-15T03:21:02.177Z,9.19
2018-04-15T03:22:08.474Z,9.04
2018-04-15T03:23:14.717Z,8.91
2018-04-15T03:24:20.954Z,8.85
2018-04-15T03:25:30.255Z,8.91
2018-04-15T03:26:36.499Z,9.07
2018-04-15T03:27:42.762Z,9.13
2018-04-15T03:28:49.681Z,9.11
2018-04-15T03:29:55.962Z,9.12
2018-04-15T03:31:02.330Z,9.09
2018-04-15T03:32:08.603Z,9.06
2018-04-15T03:33:14.924Z,9.10
2018-04-15T03:34:22.375Z,9.07
2018-04-15T03:35:29.362Z,9.17
2018-04-15T03:36:36.045Z,9.28
2018-04-15T03:37:42.847Z,9.40
2018-04-15T03:38:49.588Z,9.46
2018-04-15T03:39:56.515Z,9.46
2018-04-15T03:41:06.270Z,9.07
2018-04-15T03:42:12.892Z,8.91
2018-04-15T03:43:19.657Z,8.99
2018-04-15T03:44:26.260Z,9.10
2018-04-15T03:45:32.493Z,9.19
2018-04-15T03:46:38.934Z,9.30
2018-04-15T03:47:46.527Z,9.35
2018-04-15T03:48:53.102Z,9.29
2018-04-15T03:49:59.398Z,9.29
2018-04-15T03:51:05.902Z,9.34
2018-04-15T03:52:12.526Z,9.36
2018-04-15T03:53:19.487Z,9.30
2018-04-15T03:54:26.898Z,9.25
2018-04-15T03:55:34.108Z,9.26
2018-04-15T03:56:41.322Z,9.31
2018-04-15T03:57:47.505Z,9.10
2018-04-15T03:58:55.279Z,8.97
2018-04-15T04:00:01.198Z,9.00
2018-04-15T04:01:07.449Z,9.07
2018-04-15T04:02:14.311Z,9.04
2018-04-15T04:03:20.984Z,9.11
2018-04-15T04:04:27.306Z,9.15
2018-04-15T04:05:34.067Z,9.15
2018-04-15T04:06:41.483Z,9.18
2018-04-15T04:07:47.916Z,9.13
2018-04-15T04:08:54.144Z,8.87
2018-04-15T04:10:00.951Z,8.65
2018-04-15T04:11:07.776Z,8.60
2018-04-15T04:12:16.141Z,8.53
2018-04-15T04:13:22.446Z,8.53
2018-04-15T04:14:28.735Z,8.62
2018-04-15T04:15:34.782Z,8.69
2018-04-15T04:16:41.019Z,8.73
2018-04-15T04:17:58.184Z,8.72
2018-04-15T04:19:15.284Z,8.79
2018-04-15T04:22:15.946Z,8.89
2018-04-15T04:23:33.049Z,8.97
2018-04-15T04:24:51.283Z,9.02
2018-04-15T04:26:04.896Z,9.09
2018-04-15T04:27:11.508Z,9.16
2018-04-15T04:28:17.807Z,9.20
2018-04-15T04:29:25.382Z,9.19
2018-04-15T04:30:32.095Z,9.16
2018-04-15T04:31:38.346Z,9.05
2018-04-15T04:32:45.384Z,9.05
2018-04-15T04:33:51.602Z,8.94
2018-04-15T04:34:57.844Z,8.77
2018-04-15T04:36:04.133Z,8.80
2018-04-15T04:37:10.406Z,8.91
2018-04-15T04:38:16.587Z,9.02
2018-04-15T04:39:22.846Z,8.99
2018-04-15T04:40:29.983Z,8.78
2018-04-15T04:41:37.242Z,8.77
2018-04-15T04:42:44.290Z,8.82
2018-04-15T04:43:52.573Z,8.83
2018-04-15T04:45:01.285Z,8.92
2018-04-15T04:46:07.487Z,8.89
2018-04-15T04:47:13.798Z,8.67
2018-04-15T04:48:21.068Z,8.56
2018-04-15T04:49:27.704Z,8.46
2018-04-15T04:50:33.644Z,8.35
2018-04-15T04:51:40.794Z,8.27
2018-04-15T04:52:47.606Z,8.28
2018-04-15T04:53:53.790Z,8.27
2018-04-15T04:55:01.282Z,8.25
2018-04-15T04:56:08.624Z,8.26
2018-04-15T04:57:14.888Z,8.46
2018-04-15T04:58:21.145Z,8.68
2018-04-15T04:59:27.419Z,8.84
2018-04-15T05:00:34.413Z,8.98
2018-04-15T05:01:45.839Z,9.02
2018-04-15T05:02:52.102Z,8.84
2018-04-15T05:03:58.394Z,8.75
2018-04-15T05:05:12.898Z,8.64
2018-04-15T05:06:19.361Z,8.58
2018-04-15T05:07:25.302Z,8.56
2018-04-15T05:08:31.611Z,8.54
2018-04-15T05:09:38.038Z,8.57
2018-04-15T05:10:46.037Z,8.72
2018-04-15T05:11:52.864Z,8.89
2018-04-15T05:12:59.130Z,9.01
2018-04-15T05:14:05.466Z,9.02
2018-04-15T05:15:11.756Z,8.91
2018-04-15T05:16:17.988Z,8.88
2018-04-15T05:17:24.912Z,8.97
2018-04-15T05:18:31.549Z,9.10
2018-04-15T05:19:39.260Z,9.09
2018-04-15T05:20:45.611Z,9.02
2018-04-15T05:21:52.016Z,8.99
2018-04-15T05:22:59.007Z,8.94
2018-04-15T05:24:06.333Z,9.02
2018-04-15T05:25:13.693Z,9.21
2018-04-15T05:26:20.018Z,9.38
2018-04-15T05:27:26.002Z,9.48
2018-04-15T05:28:32.656Z,9.54
2018-04-15T05:29:39.988Z,9.59
2018-04-15T05:30:47.323Z,9.59
2018-04-15T05:31:53.851Z,9.58
2018-04-15T05:33:00.818Z,9.55
2018-04-15T05:34:07.629Z,9.50
2018-04-15T05:35:15.279Z,9.37
2018-04-15T05:36:23.471Z,9.36
2018-04-15T05:37:29.957Z,9.37
2018-04-15T05:38:39.182Z,9.35
2018-04-15T05:39:45.832Z,9.31
2018-04-15T05:40:52.954Z,9.38
2018-04-15T05:42:00.186Z,9.36
2018-04-15T05:43:07.468Z,9.36
2018-04-15T05:44:14.554Z,9.40
2018-04-15T05:45:22.604Z,9.49
2018-04-15T05:46:30.695Z,9.47
2018-04-15T05:47:37.740Z,9.44
2018-04-15T05:48:44.178Z,9.48
2018-04-15T05:49:50.693Z,9.49
2018-04-15T05:50:57.696Z,9.54
2018-04-15T05:52:03.921Z,9.55
2018-04-15T05:53:11.031Z,9.51
2018-04-15T05:54:17.858Z,9.56
2018-04-15T05:55:25.242Z,9.64
2018-04-15T05:56:32.303Z,9.86
2018-04-15T05:57:38.820Z,9.96
2018-04-15T05:58:45.517Z,10.10
2018-04-15T05:59:52.026Z,9.97
2018-04-15T06:00:58.668Z,9.93
2018-04-15T06:02:05.569Z,9.89
2018-04-15T06:03:15.019Z,9.99
2018-04-15T06:04:21.913Z,10.19
2018-04-15T06:05:28.126Z,10.30
2018-04-15T06:06:34.611Z,10.37
2018-04-15T06:07:47.100Z,10.37
2018-04-15T06:08:56.413Z,10.22
2018-04-15T06:10:03.779Z,10.16
2018-04-15T06:11:10.390Z,10.24
2018-04-15T06:12:17.214Z,10.22
2018-04-15T06:13:24.444Z,10.28
2018-04-15T06:14:32.487Z,10.41
2018-04-15T06:15:39.421Z,10.36
2018-04-15T06:16:47.328Z,10.27
2018-04-15T06:17:55.448Z,10.41
2018-04-15T06:19:02.759Z,10.50
2018-04-15T06:20:09.888Z,10.55
2018-04-15T06:21:16.864Z,10.60
2018-04-15T06:22:23.655Z,10.48
2018-04-15T06:23:32.158Z,10.54
2018-04-15T06:24:40.535Z,10.62
2018-04-15T06:25:47.218Z,10.62
2018-04-15T06:26:53.996Z,10.71
2018-04-15T06:28:01.240Z,10.79
2018-04-15T06:29:08.162Z,10.79
2018-04-15T06:30:14.415Z,10.50
2018-04-15T06:31:21.450Z,10.21
2018-04-15T06:32:29.827Z,10.31
2018-04-15T06:33:38.289Z,10.22
2018-04-15T06:34:44.936Z,10.21
2018-04-15T06:35:51.187Z,10.12
2018-04-15T06:36:57.408Z,10.08
2018-04-15T06:38:03.725Z,10.02
2018-04-15T06:39:10.066Z,10.03
2018-04-15T06:40:16.663Z,10.08
2018-04-15T06:41:22.951Z,10.12
2018-04-15T06:42:30.209Z,10.15
2018-04-15T06:43:37.022Z,10.22
2018-04-15T06:44:43.292Z,10.36
2018-04-15T06:45:50.517Z,10.32
2018-04-15T06:46:57.950Z,10.32
2018-04-15T06:48:07.363Z,10.45
2018-04-15T06:49:14.996Z,10.51
2018-04-15T06:50:22.005Z,10.44
2018-04-15T06:51:28.416Z,10.50
2018-04-15T06:52:35.408Z,10.56
2018-04-15T06:53:42.474Z,10.42
2018-04-15T06:54:50.433Z,10.34
2018-04-15T06:55:57.770Z,10.27
2018-04-15T06:57:10.420Z,10.33
2018-04-15T06:58:17.366Z,10.43
2018-04-15T06:59:24.437Z,10.49
2018-04-15T07:00:31.243Z,10.58
2018-04-15T07:01:38.051Z,10.61
2018-04-15T07:02:44.278Z,10.74
2018-04-15T07:03:51.018Z,10.83
2018-04-15T07:04:57.457Z,10.77
2018-04-15T07:06:04.081Z,10.91
2018-04-15T07:07:10.699Z,10.99
2018-04-15T07:08:17.530Z,10.91
2018-04-15T07:09:23.782Z,11.00
2018-04-15T07:10:30.928Z,10.98
2018-04-15T07:11:39.188Z,11.12
2018-04-15T07:12:47.272Z,11.09
2018-04-15T07:13:54.110Z,11.17
2018-04-15T07:15:02.630Z,11.36
2018-04-15T07:16:10.102Z,11.59
2018-04-15T07:17:17.083Z,11.69
2018-04-15T07:18:23.598Z,11.65
2018-04-15T07:19:31.080Z,11.82
2018-04-15T07:20:38.518Z,12.00
2018-04-15T07:21:46.825Z,12.16
2018-04-15T07:22:54.110Z,11.90
2018-04-15T07:24:00.933Z,11.97
2018-04-15T07:25:08.897Z,12.12
2018-04-15T07:26:15.503Z,12.17
2018-04-15T07:27:22.530Z,12.19
2018-04-15T07:28:29.263Z,12.42
2018-04-15T07:29:37.832Z,12.64
2018-04-15T07:30:46.581Z,12.79
2018-04-15T07:31:54.059Z,12.68
2018-04-15T07:33:01.354Z,12.73
2018-04-15T07:34:07.602Z,12.87
2018-04-15T07:35:13.843Z,12.99
2018-04-15T07:36:20.517Z,12.89
2018-04-15T07:37:26.904Z,12.98
2018-04-15T07:38:32.942Z,13.03
2018-04-15T07:39:39.192Z,13.06
2018-04-15T07:40:45.488Z,13.14
2018-04-15T07:41:51.599Z,12.97
2018-04-15T07:42:58.004Z,12.92
2018-04-15T07:44:03.980Z,12.90
2018-04-15T07:45:12.634Z,12.95
2018-04-15T07:46:21.355Z,12.78
2018-04-15T07:47:27.667Z,12.87
2018-04-15T07:48:33.946Z,13.02
2018-04-15T07:49:40.294Z,13.17
2018-04-15T07:50:46.614Z,13.35
2018-04-15T07:51:52.910Z,13.46
2018-04-15T07:53:00.064Z,13.58
2018-04-15T07:54:07.231Z,13.52
2018-04-15T07:55:13.498Z,13.37
2018-04-15T07:56:19.784Z,13.34
2018-04-15T07:57:26.226Z,13.30
2018-04-15T07:58:32.542Z,13.49
2018-04-15T07:59:38.831Z,13.51
2018-04-15T08:00:46.103Z,13.64
2018-04-15T08:01:52.816Z,13.77
2018-04-15T08:02:59.814Z,13.85
2018-04-15T08:04:06.168Z,13.89
2018-04-15T08:05:13.608Z,13.94
2018-04-15T08:06:21.060Z,14.07
2018-04-15T08:07:29.308Z,14.21
2018-04-15T08:08:36.356Z,14.26
2018-04-15T08:09:43.776Z,14.24
2018-04-15T08:10:51.880Z,14.22
2018-04-15T08:12:00.025Z,14.43
2018-04-15T08:13:08.137Z,14.51
2018-04-15T08:14:15.782Z,14.58
2018-04-15T08:15:23.796Z,14.79
2018-04-15T08:16:30.552Z,15.01
2018-04-15T08:17:37.701Z,14.98
2018-04-15T08:18:44.633Z,15.07
2018-04-15T08:19:52.001Z,14.82
2018-04-15T08:21:00.037Z,14.80
2018-04-15T08:22:07.184Z,14.96
2018-04-15T08:23:16.396Z,15.14
2018-04-15T08:24:23.743Z,15.44
2018-04-15T08:25:38.639Z,15.56
2018-04-15T08:26:47.963Z,15.53
2018-04-15T08:27:55.848Z,15.68
2018-04-15T08:29:02.723Z,15.94
2018-04-15T08:30:10.437Z,16.06
2018-04-15T08:31:17.880Z,16.04
2018-04-15T08:32:24.601Z,15.97
2018-04-15T08:33:31.050Z,15.59
2018-04-15T08:34:38.287Z,15.71
2018-04-15T08:35:49.162Z,15.90
2018-04-15T08:36:56.561Z,16.04
2018-04-15T08:38:03.643Z,16.16
2018-04-15T08:39:11.631Z,16.31
2018-04-15T08:40:25.256Z,16.33
2018-04-15T08:41:32.449Z,16.40
2018-04-15T08:42:40.217Z,16.39
2018-04-15T08:43:46.695Z,16.64
2018-04-15T08:44:54.912Z,16.82
2018-04-15T08:46:01.173Z,16.96
2018-04-15T08:47:08.855Z,16.95
2018-04-15T08:48:16.237Z,16.98
2018-04-15T08:49:24.143Z,16.95
2018-04-15T08:50:31.131Z,16.89
2018-04-15T08:51:38.098Z,16.87
2018-04-15T08:52:48.468Z,16.94
2018-04-15T08:53:59.122Z,16.96
2018-04-15T08:55:07.063Z,17.02
2018-04-15T08:56:14.599Z,16.95
2018-04-15T08:57:22.571Z,16.83
2018-04-15T08:58:30.150Z,17.01
2018-04-15T08:59:36.966Z,17.13
2018-04-15T09:00:44.024Z,17.20
2018-04-15T09:01:51.174Z,17.37
2018-04-15T09:02:59.126Z,17.46
2018-04-15T09:04:07.434Z,17.58
2018-04-15T09:05:14.717Z,17.59
2018-04-15T09:06:23.638Z,17.69
2018-04-15T09:07:29.869Z,17.72
2018-04-15T09:08:36.928Z,17.82
2018-04-15T09:09:43.617Z,17.97
2018-04-15T09:10:51.035Z,17.99
2018-04-15T09:11:57.302Z,18.04
2018-04-15T09:13:04.735Z,18.01
2018-04-15T09:14:11.053Z,18.13
2018-04-15T09:15:17.279Z,18.17
2018-04-15T09:16:23.557Z,18.10
2018-04-15T09:17:29.978Z,17.98
2018-04-15T09:18:36.240Z,18.08
2018-04-15T09:19:42.550Z,18.19
2018-04-15T09:20:48.862Z,18.22
2018-04-15T09:21:55.201Z,18.34
2018-04-15T09:23:01.463Z,18.45
2018-04-15T09:24:07.674Z,18.53
2018-04-15T09:25:14.058Z,18.62
2018-04-15T09:26:20.336Z,18.71
2018-04-15T09:27:27.071Z,18.79
2018-04-15T09:28:33.358Z,18.69
2018-04-15T09:29:39.843Z,18.58
2018-04-15T09:30:52.333Z,18.48
2018-04-15T09:31:58.631Z,18.58
2018-04-15T09:33:06.368Z,18.77
2018-04-15T09:34:13.255Z,18.88
2018-04-15T09:35:20.386Z,18.80
2018-04-15T09:36:27.235Z,18.50
2018-04-15T09:37:40.800Z,18.40
2018-04-15T09:38:50.372Z,18.64
2018-04-15T09:39:56.684Z,18.88
2018-04-15T09:41:05.356Z,18.98
2018-04-15T09:42:13.914Z,18.93
2018-04-15T09:43:20.745Z,18.82
2018-04-15T09:44:32.034Z,18.70
2018-04-15T09:45:40.526Z,18.79
2018-04-15T09:46:49.627Z,18.57
2018-04-15T09:47:56.729Z,18.31
2018-04-15T09:49:03.335Z,18.39
2018-04-15T09:50:10.145Z,18.43
2018-04-15T09:51:16.840Z,18.40
2018-04-15T09:52:24.026Z,18.44
2018-04-15T09:53:31.818Z,18.50
2018-04-15T09:54:38.606Z,18.58
2018-04-15T09:55:45.304Z,18.59
2018-04-15T09:56:52.443Z,18.67
2018-04-15T09:57:59.164Z,18.68
2018-04-15T09:59:06.545Z,18.36
2018-04-15T10:00:13.262Z,18.41
2018-04-15T10:01:21.420Z,18.52
2018-04-15T10:02:29.416Z,18.81
2018-04-15T10:03:36.250Z,18.97
2018-04-15T10:04:42.903Z,18.97
2018-04-15T10:05:49.840Z,18.45
2018-04-15T10:06:57.178Z,18.56
2018-04-15T10:08:04.056Z,18.26
2018-04-15T10:09:11.369Z,18.41
2018-04-15T10:10:18.654Z,18.39
2018-04-15T10:11:25.021Z,18.49
2018-04-15T10:12:32.073Z,18.46
2018-04-15T10:13:38.575Z,18.63
2018-04-15T10:14:45.203Z,18.81
2018-04-15T10:15:56.839Z,18.95
2018-04-15T10:17:04.785Z,19.09
2018-04-15T10:18:11.647Z,19.35
2018-04-15T10:19:19.995Z,19.53
2018-04-15T10:20:28.469Z,19.43
2018-04-15T10:21:35.357Z,19.51
2018-04-15T10:22:42.076Z,19.62
2018-04-15T10:23:48.875Z,19.26
2018-04-15T10:24:57.158Z,19.31
2018-04-15T10:26:05.107Z,19.37
2018-04-15T10:27:11.831Z,19.41
2018-04-15T10:28:19.167Z,19.35
2018-04-15T10:29:25.985Z,19.18
2018-04-15T10:30:33.456Z,18.88
2018-04-15T10:31:40.123Z,19.01
2018-04-15T10:32:47.726Z,19.22
2018-04-15T10:33:54.412Z,19.39
2018-04-15T10:35:01.845Z,19.54
2018-04-15T10:36:09.621Z,19.64
2018-04-15T10:37:17.026Z,19.75
2018-04-15T10:38:25.396Z,19.43
2018-04-15T10:39:32.210Z,19.22
2018-04-15T10:40:44.578Z,19.04
2018-04-15T10:41:53.846Z,19.06
2018-04-15T10:43:01.770Z,19.38
2018-04-15T10:44:08.511Z,19.56
2018-04-15T10:45:15.232Z,19.54
2018-04-15T10:46:21.864Z,19.55
2018-04-15T10:47:33.995Z,19.25
2018-04-15T10:48:40.898Z,19.30
2018-04-15T10:49:48.018Z,19.38
2018-04-15T10:50:55.058Z,19.23
2018-04-15T10:52:01.741Z,19.13
2018-04-15T10:53:09.169Z,19.06
2018-04-15T10:54:17.188Z,18.88
2018-04-15T10:55:25.497Z,18.75
2018-04-15T10:56:33.499Z,18.66
2018-04-15T10:57:41.650Z,18.70
2018-04-15T10:58:48.312Z,18.84
2018-04-15T10:59:55.309Z,19.08
2018-04-15T11:01:02.311Z,19.19
2018-04-15T11:02:08.936Z,19.16
2018-04-15T11:03:15.685Z,19.31
2018-04-15T11:04:23.410Z,19.32
2018-04-15T11:05:30.439Z,19.30
2018-04-15T11:06:37.964Z,19.11
2018-04-15T11:07:45.121Z,19.19
2018-04-15T11:08:52.746Z,19.35
2018-04-15T11:09:59.575Z,19.51
2018-04-15T11:11:06.093Z,19.69
2018-04-15T11:12:14.122Z,19.72
2018-04-15T11:13:20.488Z,19.64
2018-04-15T11:14:28.373Z,19.52
2018-04-15T11:15:35.727Z,19.57
2018-04-15T11:16:42.427Z,19.60
2018-04-15T11:17:48.709Z,19.53
2018-04-15T11:18:55.029Z,19.50
2018-04-15T11:20:01.394Z,19.42
2018-04-15T11:21:07.616Z,19.25
2018-04-15T11:22:13.859Z,19.46
2018-04-15T11:23:20.166Z,19.39
2018-04-15T11:24:27.694Z,19.58
2018-04-15T11:25:33.956Z,19.69
2018-04-15T11:26:40.971Z,19.83
2018-04-15T11:27:47.506Z,20.04
2018-04-15T11:28:53.799Z,20.02
2018-04-15T11:30:00.130Z,19.80
2018-04-15T11:31:06.418Z,19.70
2018-04-15T11:32:13.348Z,19.61
2018-04-15T11:33:21.025Z,19.62
2018-04-15T11:34:27.455Z,19.51
2018-04-15T11:35:34.326Z,19.51
2018-04-15T11:36:40.634Z,19.71
2018-04-15T11:37:47.311Z,19.82
2018-04-15T11:38:53.920Z,19.87
2018-04-15T11:40:00.289Z,20.15
2018-04-15T11:41:06.297Z,20.29
2018-04-15T11:42:13.793Z,20.29
2018-04-15T11:43:21.265Z,20.17
2018-04-15T11:44:27.368Z,19.65
2018-04-15T11:45:34.145Z,19.47
2018-04-15T11:46:40.402Z,19.45
2018-04-15T11:47:46.819Z,19.46
2018-04-15T11:48:53.218Z,19.71
2018-04-15T11:50:03.636Z,19.94
2018-04-15T11:51:10.915Z,20.00
2018-04-15T11:52:17.272Z,19.82
2018-04-15T11:53:23.891Z,19.56
2018-04-15T11:54:38.045Z,19.63
2018-04-15T11:55:45.350Z,19.74
2018-04-15T11:56:55.739Z,19.92
2018-04-15T11:58:03.090Z,19.99
2018-04-15T11:59:10.237Z,20.08
2018-04-15T12:00:17.356Z,20.04
2018-04-15T12:01:25.190Z,19.98
2018-04-15T12:02:32.156Z,20.10
2018-04-15T12:03:39.998Z,20.26
2018-04-15T12:04:47.558Z,20.28
2018-04-15T12:05:55.766Z,20.30
2018-04-15T12:07:03.955Z,20.22
2018-04-15T12:08:10.835Z,20.17
2018-04-15T12:09:17.603Z,20.09
2018-04-15T12:10:24.316Z,20.15
2018-04-15T12:11:31.145Z,20.12
2018-04-15T12:12:37.769Z,20.21
2018-04-15T12:13:44.318Z,20.29
2018-04-15T12:14:53.236Z,20.37
2018-04-15T12:15:59.936Z,20.37
2018-04-15T12:17:08.032Z,20.43
2018-04-15T12:18:15.157Z,20.51
2018-04-15T12:19:21.708Z,20.52
2018-04-15T12:20:28.966Z,20.55
2018-04-15T12:21:36.794Z,20.55
2018-04-15T12:22:44.076Z,20.51
2018-04-15T12:23:50.441Z,20.58
2018-04-15T12:24:56.749Z,20.71
2018-04-15T12:26:04.851Z,20.79
2018-04-15T12:27:14.761Z,20.55
2018-04-15T12:28:21.278Z,20.55
2018-04-15T12:29:28.003Z,20.42
2018-04-15T12:30:35.630Z,20.53
2018-04-15T12:31:42.252Z,20.55
2018-04-15T12:32:48.674Z,20.65
2018-04-15T12:33:55.074Z,20.52
2018-04-15T12:35:01.684Z,20.52
2018-04-15T12:36:08.922Z,20.55
2018-04-15T12:37:17.039Z,20.33
2018-04-15T12:38:23.510Z,20.41
2018-04-15T12:39:30.339Z,20.33
2018-04-15T12:40:37.385Z,20.42
2018-04-15T12:41:45.015Z,20.55
2018-04-15T12:42:52.340Z,20.61
2018-04-15T12:43:59.018Z,20.65
2018-04-15T12:45:07.074Z,20.81
2018-04-15T12:46:13.835Z,20.66
2018-04-15T12:47:21.126Z,20.47
2018-04-15T12:48:28.505Z,20.15
2018-04-15T12:49:35.380Z,20.03
2018-04-15T12:50:41.790Z,20.21
2018-04-15T12:51:50.799Z,20.14
2018-04-15T12:52:58.278Z,20.26
2018-04-15T12:54:05.451Z,20.14
2018-04-15T12:55:12.083Z,20.30
2018-04-15T12:56:19.353Z,20.42
2018-04-15T12:57:26.333Z,20.48
2018-04-15T12:58:36.327Z,20.38
2018-04-15T12:59:43.103Z,20.25
2018-04-15T13:00:52.657Z,20.26
2018-04-15T13:02:00.114Z,20.15
2018-04-15T13:03:07.977Z,20.21
2018-04-15T13:04:14.323Z,20.35
2018-04-15T13:05:20.797Z,20.26
2018-04-15T13:06:27.034Z,20.02
2018-04-15T13:07:33.376Z,19.88
2018-04-15T13:08:39.702Z,20.01
2018-04-15T13:09:45.991Z,19.83
2018-04-15T13:10:52.503Z,19.84
2018-04-15T13:11:58.851Z,19.76
2018-04-15T13:13:05.168Z,19.94
2018-04-15T13:14:12.179Z,19.91
2018-04-15T13:15:18.467Z,19.87
2018-04-15T13:16:24.796Z,19.79
2018-04-15T13:17:31.122Z,19.74
2018-04-15T13:18:37.445Z,19.73
2018-04-15T13:19:44.138Z,19.84
2018-04-15T13:20:50.551Z,19.70
2018-04-15T13:21:56.724Z,19.69
2018-04-15T13:23:03.144Z,19.82
2018-04-15T13:24:09.395Z,19.95
2018-04-15T13:25:15.361Z,20.14
2018-04-15T13:26:22.039Z,20.22
2018-04-15T13:27:28.453Z,20.42
2018-04-15T13:28:34.723Z,20.40
2018-04-15T13:29:41.122Z,20.32
2018-04-15T13:30:47.533Z,20.43
2018-04-15T13:31:53.753Z,20.65
2018-04-15T13:33:00.204Z,20.55
2018-04-15T13:34:06.487Z,20.52
2018-04-15T13:35:13.992Z,20.41
2018-04-15T13:36:20.445Z,20.29
2018-04-15T13:37:27.961Z,20.33
2018-04-15T13:38:37.814Z,20.34
2018-04-15T13:39:44.339Z,20.03
2018-04-15T13:40:50.613Z,19.92
2018-04-15T13:41:56.954Z,19.69
2018-04-15T13:43:03.465Z,19.64
2018-04-15T13:44:09.859Z,19.70
2018-04-15T13:45:16.259Z,19.90
2018-04-15T13:46:22.582Z,19.97
2018-04-15T13:47:29.516Z,20.12
2018-04-15T13:48:35.606Z,20.23
2018-04-15T13:49:41.718Z,20.11
2018-04-15T13:50:53.997Z,20.05
2018-04-15T13:52:00.400Z,19.88
2018-04-15T13:53:06.777Z,19.68
2018-04-15T13:54:19.072Z,19.84
2018-04-15T13:55:25.467Z,20.01
2018-04-15T13:56:31.882Z,20.22
2018-04-15T13:57:38.179Z,20.14
2018-04-15T13:58:45.038Z,20.02
2018-04-15T13:59:51.338Z,19.83
2018-04-15T14:00:57.764Z,19.81
2018-04-15T14:02:04.042Z,19.88
2018-04-15T14:03:10.443Z,19.76
2018-04-15T14:04:16.778Z,19.66
2018-04-15T14:05:23.179Z,19.55
2018-04-15T14:06:29.594Z,19.58
2018-04-15T14:07:35.736Z,19.53
2018-04-15T14:08:42.140Z,19.69
2018-04-15T14:09:48.784Z,19.74
2018-04-15T14:10:54.998Z,19.64
2018-04-15T14:12:01.391Z,19.76
2018-04-15T14:13:07.435Z,19.86
2018-04-15T14:14:13.904Z,19.79
2018-04-15T14:15:19.817Z,19.78
2018-04-15T14:16:26.202Z,19.77
2018-04-15T14:17:32.498Z,20.00
2018-04-15T14:18:38.973Z,20.16
2018-04-15T14:19:45.234Z,20.24
2018-04-15T14:20:51.551Z,20.10
2018-04-15T14:21:57.846Z,20.18
2018-04-15T14:23:04.171Z,19.90
2018-04-15T14:24:10.958Z,19.64
2018-04-15T14:25:19.251Z,19.67
2018-04-15T14:26:27.664Z,19.75
2018-04-15T14:27:33.820Z,19.70
2018-04-15T14:28:40.253Z,19.68
2018-04-15T14:29:46.587Z,19.72
2018-04-15T14:30:52.898Z,19.89
2018-04-15T14:31:59.247Z,20.17
2018-04-15T14:33:05.467Z,20.36
2018-04-15T14:34:11.404Z,20.39
2018-04-15T14:35:17.909Z,20.17
2018-04-15T14:36:24.228Z,20.25
2018-04-15T14:37:30.549Z,20.43